Time;durP1;ratioP1;P1;durP2;ratioP2;P2;SDS_P1;SDS_P2;PMS_P1;PMS_P2;Temp;Humidity;BMP_temperature;BMP_pressure;BME280_temperature;BME280_humidity;BME280_pressure;Samples;Min_cycle;Max_cycle;Signal;HPM_P1;HPM_P2
2021/08/05 00:02:01;;;;;;;4.87;3.30;;;16.70;99.90;;;;;;4955921;28;20200;-63
2021/08/05 00:04:27;;;;;;;3.93;3.60;;;16.70;99.90;;;;;;4956132;29;20482;-63
2021/08/05 00:06:52;;;;;;;3.80;3.50;;;16.80;99.90;;;;;;4956042;29;20259;-63
2021/08/05 00:09:19;;;;;;;5.40;3.73;;;16.80;99.90;;;;;;4955813;29;20181;-63
2021/08/05 00:11:44;;;;;;;4.30;3.87;;;16.70;99.90;;;;;;4955757;28;20299;-63
2021/08/05 00:14:10;;;;;;;3.57;3.27;;;16.70;99.90;;;;;;4956004;29;20515;-62
2021/08/05 00:16:36;;;;;;;4.73;3.73;;;16.70;99.90;;;;;;4955958;29;20184;-63
2021/08/05 00:19:02;;;;;;;4.20;3.80;;;16.70;99.90;;;;;;4955657;29;20187;-63
2021/08/05 00:21:28;;;;;;;3.40;3.10;;;16.60;99.90;;;;;;4955655;28;20209;-63
2021/08/05 00:23:53;;;;;;;3.50;3.30;;;16.60;99.90;;;;;;4955905;29;20438;-63
2021/08/05 00:26:19;;;;;;;4.30;3.90;;;16.60;99.90;;;;;;4955759;29;20175;-63
2021/08/05 00:28:44;;;;;;;4.10;3.70;;;16.50;99.90;;;;;;4955462;29;20248;-63
2021/08/05 00:31:11;;;;;;;3.50;3.20;;;16.60;99.90;;;;;;4955545;28;20685;-63
2021/08/05 00:33:37;;;;;;;5.10;4.00;;;16.60;99.90;;;;;;4955635;29;20204;-63
2021/08/05 00:36:03;;;;;;;4.23;3.57;;;16.60;99.90;;;;;;4954808;28;20488;-63
2021/08/05 00:38:28;;;;;;;4.37;3.63;;;16.50;99.90;;;;;;4955250;29;20416;-62
2021/08/05 00:40:54;;;;;;;3.33;3.13;;;16.50;99.90;;;;;;4955373;28;20511;-63
2021/08/05 00:43:20;;;;;;;4.00;3.60;;;16.50;99.90;;;;;;4955426;29;20216;-63
2021/08/05 00:45:46;;;;;;;4.03;3.73;;;16.50;99.90;;;;;;4955869;29;20216;-63
2021/08/05 00:48:12;;;;;;;4.57;4.17;;;16.50;99.90;;;;;;4955333;29;20448;-63
2021/08/05 00:50:38;;;;;;;5.10;4.07;;;16.50;99.90;;;;;;4955016;28;20545;-63
2021/08/05 00:53:04;;;;;;;3.70;3.40;;;16.50;99.90;;;;;;4955257;29;20633;-63
2021/08/05 00:55:29;;;;;;;3.73;3.43;;;16.50;99.90;;;;;;4955385;29;20173;-63
2021/08/05 00:57:55;;;;;;;3.80;3.50;;;16.40;99.90;;;;;;4955088;29;20789;-63
2021/08/05 01:00:23;;;;;;;4.57;4.27;;;16.50;99.90;;;;;;4954663;28;20181;-63
2021/08/05 01:02:53;;;;;;;3.90;3.60;;;16.50;99.90;;;;;;4955099;29;20173;-63
2021/08/05 01:05:21;;;;;;;4.20;3.80;;;16.50;99.90;;;;;;4955190;29;20424;-63
2021/08/05 01:07:59;;;;;;;8.30;4.97;;;16.60;99.90;;;;;;4954948;29;20416;-63
2021/08/05 01:10:28;;;;;;;4.30;4.00;;;16.50;99.90;;;;;;4954577;28;21007;-63
2021/08/05 01:13:15;;;;;;;4.77;4.37;;;16.50;99.90;;;;;;4954718;29;20428;-63
2021/08/05 01:15:42;;;;;;;3.97;3.60;;;16.50;99.90;;;;;;4954930;29;20424;-63
2021/08/05 01:18:14;;;;;;;5.30;3.83;;;16.50;99.90;;;;;;4954726;29;20424;-63
2021/08/05 01:20:45;;;;;;;4.80;4.40;;;16.40;99.90;;;;;;4954502;28;20818;-63
2021/08/05 01:23:59;;;;;;;5.00;4.60;;;16.40;99.90;;;;;;4954770;29;20432;-63
2021/08/05 01:26:30;;;;;;;10.93;4.17;;;16.30;99.90;;;;;;4858186;29;20440;-63
2021/08/05 01:28:57;;;;;;;4.80;4.40;;;16.40;99.90;;;;;;4946536;29;20468;-63
2021/08/05 01:31:24;;;;;;;4.00;3.70;;;16.40;99.90;;;;;;4954487;28;20459;-62
2021/08/05 01:33:52;;;;;;;5.00;3.40;;;16.30;99.90;;;;;;4954378;29;20779;-63
2021/08/05 01:36:19;;;;;;;4.83;4.40;;;16.30;99.90;;;;;;4954436;29;20420;-63
2021/08/05 01:38:47;;;;;;;4.97;4.57;;;16.30;99.90;;;;;;4954138;29;20436;-63
2021/08/05 01:41:13;;;;;;;4.17;3.80;;;16.20;99.90;;;;;;4954300;28;20472;-63
2021/08/05 01:43:40;;;;;;;4.10;3.80;;;16.20;99.90;;;;;;4954264;29;20424;-63
2021/08/05 01:46:06;;;;;;;4.57;4.17;;;16.20;99.90;;;;;;4953927;28;20463;-63
2021/08/05 01:48:32;;;;;;;7.17;4.10;;;16.30;99.90;;;;;;4953840;29;20443;-63
2021/08/05 01:51:00;;;;;;;4.60;4.20;;;16.30;99.90;;;;;;4954191;28;20444;-63
2021/08/05 01:53:26;;;;;;;4.20;3.60;;;16.30;99.90;;;;;;4954356;29;20440;-63
2021/08/05 01:55:52;;;;;;;4.90;4.40;;;16.20;99.90;;;;;;4954225;29;20424;-63
2021/08/05 01:58:17;;;;;;;3.80;3.50;;;16.30;99.90;;;;;;4953699;29;20815;-63
2021/08/05 02:00:43;;;;;;;5.43;4.77;;;16.30;99.90;;;;;;4953819;28;20251;-62
2021/08/05 02:03:10;;;;;;;5.10;4.57;;;16.30;99.90;;;;;;4954114;29;20177;-63
2021/08/05 02:05:56;;;;;;;4.43;4.03;;;16.30;99.90;;;;;;4954072;29;20169;-63
2021/08/05 02:08:31;;;;;;;4.90;4.20;;;16.30;99.90;;;;;;4953925;29;20479;-63
2021/08/05 02:10:58;;;;;;;4.60;4.30;;;16.40;99.90;;;;;;4954033;28;20482;-63
2021/08/05 02:13:28;;;;;;;3.77;3.47;;;16.40;99.90;;;;;;4936689;29;20440;-63
2021/08/05 02:16:01;;;;;;;5.20;4.20;;;16.50;99.90;;;;;;4953977;29;20421;-63
2021/08/05 02:18:30;;;;;;;4.33;4.00;;;16.50;99.90;;;;;;4953584;29;20431;-63
2021/08/05 02:20:56;;;;;;;4.03;3.60;;;16.50;99.90;;;;;;4953784;28;20817;-63
2021/08/05 02:23:23;;;;;;;5.40;4.93;;;16.50;99.90;;;;;;4953916;29;20794;-63
2021/08/05 02:25:51;;;;;;;6.40;4.47;;;16.50;99.90;;;;;;4953772;29;20911;-63
2021/08/05 02:28:18;;;;;;;5.13;4.43;;;16.40;99.90;;;;;;4953705;29;20504;-63
2021/08/05 02:30:44;;;;;;;5.30;4.60;;;16.30;99.90;;;;;;4953580;28;20448;-63
2021/08/05 02:33:11;;;;;;;6.77;6.13;;;16.10;99.90;;;;;;4953810;29;20420;-62
2021/08/05 02:35:40;;;;;;;6.80;6.07;;;16.00;99.90;;;;;;4953432;29;20880;-63
2021/08/05 02:38:06;;;;;;;5.40;4.90;;;16.00;99.90;;;;;;4953775;29;20503;-63
2021/08/05 02:40:33;;;;;;;5.23;4.73;;;15.90;99.90;;;;;;4953267;28;20958;-63
2021/08/05 02:43:02;;;;;;;5.70;5.30;;;15.90;99.90;;;;;;4953703;29;20670;-63
2021/08/05 02:45:28;;;;;;;5.73;5.10;;;15.80;99.90;;;;;;4953629;29;20515;-63
2021/08/05 02:47:54;;;;;;;4.80;4.40;;;15.70;99.90;;;;;;4953680;29;20845;-63
2021/08/05 02:50:20;;;;;;;5.60;4.90;;;15.80;99.90;;;;;;4953240;28;20476;-63
2021/08/05 02:52:46;;;;;;;5.47;4.97;;;15.70;99.90;;;;;;4954120;29;20176;-63
2021/08/05 02:55:12;;;;;;;5.27;4.77;;;15.60;99.90;;;;;;4953579;29;20915;-62
2021/08/05 02:57:38;;;;;;;4.70;4.30;;;15.70;99.90;;;;;;4952890;28;20189;-63
2021/08/05 03:00:05;;;;;;;4.27;3.97;;;15.80;99.90;;;;;;4956927;28;20185;-63
2021/08/05 03:02:31;;;;;;;5.63;5.03;;;15.80;99.90;;;;;;4957180;29;20474;-63
2021/08/05 03:04:57;;;;;;;5.50;5.00;;;15.80;99.90;;;;;;4957194;29;20507;-62
2021/08/05 03:07:25;;;;;;;5.20;4.80;;;15.90;99.90;;;;;;4957253;29;20261;-63
2021/08/05 03:09:51;;;;;;;4.07;3.73;;;15.90;99.90;;;;;;4956541;28;20260;-63
2021/08/05 03:12:16;;;;;;;4.50;4.10;;;15.90;99.90;;;;;;4957227;29;20452;-63
2021/08/05 03:14:42;;;;;;;5.27;4.57;;;15.90;99.90;;;;;;4957169;29;20224;-63
2021/08/05 03:17:07;;;;;;;5.40;4.90;;;15.80;99.90;;;;;;4957124;29;20176;-63
2021/08/05 03:19:33;;;;;;;4.50;4.10;;;15.80;99.90;;;;;;4956729;29;20264;-63
2021/08/05 03:21:58;;;;;;;5.23;4.50;;;15.90;99.90;;;;;;4956795;28;20627;-63
2021/08/05 03:24:24;;;;;;;5.33;4.83;;;15.90;99.90;;;;;;4956902;29;20172;-63
2021/08/05 03:26:49;;;;;;;5.40;4.90;;;15.90;99.90;;;;;;4956920;29;20177;-63
2021/08/05 03:29:15;;;;;;;5.37;4.87;;;15.80;99.90;;;;;;4956913;29;20224;-63
2021/08/05 03:31:41;;;;;;;5.90;5.07;;;15.80;99.90;;;;;;4956703;28;20283;-63
2021/08/05 03:34:06;;;;;;;5.13;4.73;;;15.90;99.90;;;;;;4939754;29;20188;-63
2021/08/05 03:36:31;;;;;;;4.87;4.57;;;15.90;99.90;;;;;;4956583;29;20184;-63
2021/08/05 03:38:57;;;;;;;5.20;4.70;;;15.80;99.90;;;;;;4956365;29;20592;-63
2021/08/05 03:41:22;;;;;;;5.67;4.80;;;15.80;99.90;;;;;;4939209;29;20228;-63
2021/08/05 03:43:48;;;;;;;8.60;5.40;;;15.80;99.90;;;;;;4956561;29;20181;-63
2021/08/05 03:46:13;;;;;;;8.50;7.40;;;15.80;99.90;;;;;;4956533;29;20184;-63
2021/08/05 03:48:39;;;;;;;8.80;7.60;;;15.80;99.90;;;;;;4956229;29;20173;-63
2021/08/05 03:51:05;;;;;;;6.53;6.00;;;15.90;99.90;;;;;;4956686;28;20220;-63
2021/08/05 03:53:32;;;;;;;6.43;5.90;;;15.80;99.90;;;;;;4956329;29;20600;-63
2021/08/05 03:55:57;;;;;;;6.00;5.10;;;15.90;99.90;;;;;;4956417;29;20191;-62
2021/08/05 03:58:23;;;;;;;6.90;5.90;;;15.90;99.90;;;;;;4956337;29;20424;-63
2021/08/05 04:00:48;;;;;;;6.47;5.87;;;15.90;99.90;;;;;;4956113;28;20197;-63
2021/08/05 04:03:14;;;;;;;5.53;5.10;;;15.90;99.90;;;;;;4956406;29;20235;-63
2021/08/05 04:05:40;;;;;;;6.47;5.87;;;15.90;99.90;;;;;;4956133;29;20549;-63
2021/08/05 04:08:05;;;;;;;6.63;5.37;;;15.90;99.90;;;;;;4956097;29;20627;-63
2021/08/05 04:10:31;;;;;;;6.37;5.87;;;15.90;99.90;;;;;;4983977;23;20282;-65
2021/08/05 04:12:56;;;;;;;8.90;5.73;;;16.00;99.90;;;;;;5014197;28;20181;-65
2021/08/05 04:15:22;;;;;;;6.07;5.57;;;16.00;99.90;;;;;;5014428;28;20195;-65
2021/08/05 04:17:48;;;;;;;5.43;5.03;;;16.00;99.90;;;;;;5014209;28;20707;-65
2021/08/05 04:20:14;;;;;;;9.77;7.63;;;15.90;99.90;;;;;;5012878;28;20171;-65
2021/08/05 04:22:39;;;;;;;7.70;6.30;;;15.70;99.90;;;;;;4994440;28;20464;-66
2021/08/05 04:25:06;;;;;;;7.53;5.77;;;15.60;99.90;;;;;;4994581;28;20178;-65
2021/08/05 04:27:32;;;;;;;6.13;5.60;;;15.60;99.90;;;;;;4994543;28;20218;-65
2021/08/05 04:29:58;;;;;;;7.80;5.73;;;15.60;99.90;;;;;;4994187;28;20939;-65
2021/08/05 04:32:23;;;;;;;6.53;5.93;;;15.60;99.90;;;;;;4994272;28;20279;-66
2021/08/05 04:34:49;;;;;;;7.87;6.27;;;15.60;99.90;;;;;;4994354;28;20180;-65
2021/08/05 04:37:15;;;;;;;7.37;6.10;;;15.60;99.90;;;;;;4994298;28;20222;-65
2021/08/05 04:39:41;;;;;;;9.17;6.27;;;15.60;99.90;;;;;;4994013;28;20238;-66
2021/08/05 04:42:07;;;;;;;6.63;6.00;;;15.60;99.90;;;;;;4994085;28;20463;-65
2021/08/05 04:44:33;;;;;;;13.03;9.70;;;15.60;99.90;;;;;;4994230;28;21013;-68
2021/08/05 04:46:59;;;;;;;5.70;5.20;;;15.70;99.90;;;;;;4976630;28;20561;-65
2021/08/05 04:49:24;;;;;;;6.63;6.00;;;15.60;99.90;;;;;;4993795;28;20183;-66
2021/08/05 04:51:53;;;;;;;7.13;6.30;;;15.70;99.90;;;;;;4993810;28;20547;-66
2021/08/05 04:54:22;;;;;;;7.20;6.33;;;15.60;99.90;;;;;;4994004;28;20175;-65
2021/08/05 04:56:47;;;;;;;12.33;6.70;;;15.70;99.90;;;;;;4993937;28;20795;-66
2021/08/05 04:59:13;;;;;;;9.73;7.10;;;15.60;99.90;;;;;;4993582;28;20421;-66
2021/08/05 05:01:39;;;;;;;8.53;6.63;;;15.60;99.90;;;;;;4994178;28;20219;-66
2021/08/05 05:04:04;;;;;;;8.73;6.60;;;15.60;99.90;;;;;;4994179;28;20699;-65
2021/08/05 05:06:30;;;;;;;8.20;7.10;;;15.60;99.90;;;;;;4993780;28;20258;-65
2021/08/05 05:08:56;;;;;;;8.03;7.33;;;15.60;99.90;;;;;;4993407;28;20226;-66
2021/08/05 05:11:22;;;;;;;11.70;7.07;;;15.60;99.90;;;;;;4993405;28;20211;-65
2021/08/05 05:13:48;;;;;;;7.60;6.80;;;15.60;99.90;;;;;;4993475;28;20206;-66
2021/08/05 05:16:14;;;;;;;8.20;6.87;;;15.60;99.90;;;;;;4975758;28;20463;-67
2021/08/05 05:18:40;;;;;;;10.20;7.90;;;15.70;99.90;;;;;;4992723;28;20187;-65
2021/08/05 05:21:05;;;;;;;8.93;6.83;;;15.70;99.90;;;;;;4962538;28;20562;-65
2021/08/05 05:23:31;;;;;;;8.53;7.73;;;15.70;99.90;;;;;;4993227;28;20434;-66
2021/08/05 05:25:57;;;;;;;9.27;6.90;;;15.70;99.90;;;;;;4993334;28;20172;-66
2021/08/05 05:28:23;;;;;;;9.83;7.53;;;15.70;99.90;;;;;;4992712;28;20473;-65
2021/08/05 05:30:49;;;;;;;14.47;7.53;;;15.80;99.90;;;;;;4992768;28;20200;-66
2021/08/05 05:33:15;;;;;;;7.60;6.90;;;15.70;99.90;;;;;;4975530;28;20427;-66
2021/08/05 05:35:41;;;;;;;8.20;6.77;;;15.80;99.90;;;;;;4993170;28;20418;-65
2021/08/05 05:38:07;;;;;;;7.27;6.57;;;15.80;99.90;;;;;;4993061;28;20179;-66
2021/08/05 05:40:33;;;;;;;9.40;7.10;;;15.80;99.90;;;;;;4992893;28;20450;-65
2021/08/05 05:43:00;;;;;;;6.97;6.20;;;15.80;99.90;;;;;;4993052;28;20434;-66
2021/08/05 05:45:26;;;;;;;6.53;5.93;;;15.80;99.90;;;;;;4993023;28;20466;-65
2021/08/05 05:47:52;;;;;;;8.30;6.50;;;16.00;99.90;;;;;;4993125;28;20446;-65
2021/08/05 05:50:18;;;;;;;5.50;5.00;;;16.00;99.90;;;;;;4974911;28;20194;-65
2021/08/05 05:52:44;;;;;;;8.40;6.10;;;16.10;99.90;;;;;;4992981;28;20226;-65
2021/08/05 05:55:10;;;;;;;7.10;6.37;;;16.10;99.90;;;;;;4992928;28;20811;-65
2021/08/05 05:57:36;;;;;;;5.83;5.23;;;16.30;99.90;;;;;;4992696;28;20435;-66
2021/08/05 06:00:02;;;;;;;7.30;5.70;;;16.30;99.90;;;;;;4992471;28;20168;-66
2021/08/05 06:02:28;;;;;;;6.40;5.80;;;16.50;99.90;;;;;;4992728;28;20199;-64
2021/08/05 06:04:53;;;;;;;7.33;5.93;;;16.50;99.90;;;;;;4992299;28;20957;-64
2021/08/05 06:07:19;;;;;;;8.30;7.50;;;16.80;99.90;;;;;;4992762;28;20263;-65
2021/08/05 06:09:44;;;;;;;6.37;5.87;;;17.10;99.90;;;;;;4992363;28;20632;-64
2021/08/05 06:12:10;;;;;;;6.17;5.43;;;17.10;99.90;;;;;;4975144;28;20211;-64
2021/08/05 06:14:35;;;;;;;5.87;4.97;;;17.30;99.90;;;;;;4975210;28;20176;-64
2021/08/05 06:17:01;;;;;;;5.53;5.07;;;17.50;99.90;;;;;;4992348;28;20207;-65
2021/08/05 06:19:26;;;;;;;4.80;4.40;;;17.80;99.90;;;;;;4991839;28;20672;-65
2021/08/05 06:21:52;;;;;;;4.90;4.50;;;18.00;99.90;;;;;;4992438;28;20530;-65
2021/08/05 06:24:17;;;;;;;4.83;4.40;;;18.00;99.90;;;;;;4992097;28;20198;-65
2021/08/05 06:26:43;;;;;;;4.83;4.40;;;17.90;99.90;;;;;;4992434;28;20225;-65
2021/08/05 06:29:09;;;;;;;4.87;4.47;;;17.90;99.90;;;;;;4963824;28;20183;-67
2021/08/05 06:31:36;;;;;;;4.93;4.50;;;17.90;99.90;;;;;;4959936;28;21042;-65
2021/08/05 06:34:03;;;;;;;5.27;4.87;;;18.00;99.90;;;;;;4993424;28;20934;-64
2021/08/05 06:36:29;;;;;;;4.63;3.90;;;18.10;99.90;;;;;;4996503;28;20426;-65
2021/08/05 06:38:54;;;;;;;6.80;4.60;;;18.30;99.90;;;;;;4992279;28;20442;-69
2021/08/05 06:41:20;;;;;;;5.20;3.63;;;18.70;99.90;;;;;;4996111;28;20195;-68
2021/08/05 06:43:46;;;;;;;5.57;4.33;;;18.90;99.90;;;;;;5006292;28;20588;-69
2021/08/05 06:46:11;;;;;;;4.77;4.27;;;19.10;99.90;;;;;;4998136;28;20664;-69
2021/08/05 06:48:37;;;;;;;7.40;3.70;;;19.40;99.90;;;;;;4994794;28;20318;-70
2021/08/05 06:51:03;;;;;;;4.80;4.30;;;19.80;99.90;;;;;;5015445;28;20206;-70
2021/08/05 06:53:28;;;;;;;4.30;3.90;;;19.90;99.90;;;;;;5015856;28;20185;-69
2021/08/05 06:55:54;;;;;;;4.97;4.47;;;19.80;99.90;;;;;;5015104;28;20542;-71
2021/08/05 06:58:22;;;;;;;3.97;3.27;;;19.40;99.90;;;;;;5015604;28;20171;-70
2021/08/05 07:00:49;;;;;;;4.83;3.27;;;19.30;99.90;;;;;;5012020;28;20201;-70
2021/08/05 07:03:14;;;;;;;4.27;3.87;;;19.10;99.90;;;;;;4997973;28;20504;-70
2021/08/05 07:05:40;;;;;;;4.07;3.70;;;19.30;99.90;;;;;;4998276;28;20529;-70
2021/08/05 07:08:06;;;;;;;4.73;3.57;;;19.40;99.90;;;;;;5015790;28;20198;-70
2021/08/05 07:10:31;;;;;;;3.97;3.67;;;19.70;99.90;;;;;;5011092;28;20252;-70
2021/08/05 07:12:57;;;;;;;4.90;3.33;;;20.10;99.90;;;;;;4988373;28;20716;-70
2021/08/05 07:15:22;;;;;;;3.63;3.20;;;20.10;99.90;;;;;;5011554;28;20200;-70
2021/08/05 07:17:48;;;;;;;3.70;3.50;;;20.20;99.90;;;;;;5011235;28;20179;-70
2021/08/05 07:20:15;;;;;;;3.70;3.20;;;20.30;99.90;;;;;;5007907;28;20190;-70
2021/08/05 07:22:42;;;;;;;3.93;3.20;;;20.30;99.90;;;;;;5009587;28;20579;-70
2021/08/05 07:25:08;;;;;;;4.87;3.67;;;20.60;99.90;;;;;;5011455;28;20433;-70
2021/08/05 07:27:35;;;;;;;4.40;4.00;;;20.70;99.90;;;;;;5010303;28;21014;-70
2021/08/05 07:30:01;;;;;;;3.93;3.60;;;20.90;99.90;;;;;;5006916;28;20439;-70
2021/08/05 07:32:26;;;;;;;3.50;3.20;;;21.10;99.90;;;;;;5010925;28;20457;-70
2021/08/05 07:34:52;;;;;;;5.57;3.70;;;21.20;99.90;;;;;;5010821;28;20187;-71
2021/08/05 07:37:17;;;;;;;3.33;3.00;;;21.50;99.90;;;;;;5011457;28;20183;-70
2021/08/05 07:39:43;;;;;;;5.67;3.20;;;21.60;99.90;;;;;;5007960;28;20182;-70
2021/08/05 07:42:09;;;;;;;4.30;4.00;;;21.50;99.90;;;;;;4991292;28;20207;-71
2021/08/05 07:44:35;;;;;;;4.67;3.43;;;21.40;99.90;;;;;;4993416;28;20175;-71
2021/08/05 07:47:00;;;;;;;7.00;3.67;;;21.50;99.90;;;;;;5010803;28;20278;-69
2021/08/05 07:49:26;;;;;;;4.77;3.10;;;21.50;99.90;;;;;;5007215;28;20182;-70
2021/08/05 07:51:52;;;;;;;4.37;3.73;;;21.40;99.90;;;;;;5011189;28;20253;-71
2021/08/05 07:54:18;;;;;;;8.10;3.50;;;21.60;99.90;;;;;;5011184;28;20441;-70
2021/08/05 07:56:43;;;;;;;6.27;3.27;;;21.40;99.90;;;;;;5011013;28;20210;-70
2021/08/05 07:59:09;;;;;;;4.77;4.37;;;21.20;99.90;;;;;;5007213;28;20555;-70
2021/08/05 08:01:35;;;;;;;5.73;4.37;;;21.40;99.90;;;;;;5010464;28;20222;-70
2021/08/05 08:04:00;;;;;;;5.40;4.47;;;21.40;99.90;;;;;;5010908;28;20191;-69
2021/08/05 08:06:26;;;;;;;6.20;3.30;;;20.90;99.90;;;;;;5011253;28;20257;-69
2021/08/05 08:08:51;;;;;;;4.20;3.80;;;20.90;99.90;;;;;;5007115;28;20541;-69
2021/08/05 08:11:22;;;;;;;3.80;3.50;;;21.00;99.90;;;;;;5011017;28;20219;-71
2021/08/05 08:13:49;;;;;;;3.90;3.43;;;21.00;99.90;;;;;;5011629;28;20214;-70
2021/08/05 08:16:15;;;;;;;3.40;3.10;;;21.20;99.90;;;;;;5011323;28;20465;-70
2021/08/05 08:18:40;;;;;;;4.20;3.83;;;21.10;99.90;;;;;;5007642;28;20457;-71
2021/08/05 08:21:06;;;;;;;3.93;3.60;;;20.90;99.90;;;;;;5010430;28;20199;-69
2021/08/05 08:23:31;;;;;;;3.90;3.37;;;20.80;99.90;;;;;;5011105;28;20179;-70
2021/08/05 08:25:57;;;;;;;4.97;4.57;;;20.60;99.90;;;;;;5010686;28;20182;-71
2021/08/05 08:28:22;;;;;;;3.83;3.53;;;20.50;99.90;;;;;;5010268;28;20263;-72
2021/08/05 08:30:48;;;;;;;3.80;3.37;;;20.30;99.90;;;;;;5007077;28;20742;-69
2021/08/05 08:33:13;;;;;;;3.60;3.30;;;20.50;99.90;;;;;;5010833;28;20167;-70
2021/08/05 08:35:39;;;;;;;3.67;3.10;;;20.70;99.90;;;;;;5010890;28;20206;-70
2021/08/05 08:38:06;;;;;;;4.23;3.83;;;21.00;99.90;;;;;;5010512;28;20179;-70
2021/08/05 08:40:32;;;;;;;4.50;4.03;;;21.10;99.90;;;;;;5006666;28;20191;-72
2021/08/05 08:42:58;;;;;;;3.80;3.50;;;21.10;99.90;;;;;;4991556;28;20561;-69
2021/08/05 08:45:23;;;;;;;3.83;3.00;;;21.10;99.90;;;;;;5010145;28;20591;-70
2021/08/05 08:47:53;;;;;;;3.80;3.43;;;21.10;99.90;;;;;;4992697;28;20426;-71
2021/08/05 08:50:23;;;;;;;7.40;3.17;;;21.00;99.90;;;;;;5005279;28;20264;-70
2021/08/05 08:52:52;;;;;;;3.63;3.33;;;21.10;99.90;;;;;;5010169;28;20508;-70
2021/08/05 08:55:21;;;;;;;4.00;3.40;;;20.80;99.90;;;;;;5009939;28;20839;-69
2021/08/05 08:57:48;;;;;;;3.80;3.50;;;20.70;99.90;;;;;;5009795;28;20884;-70
2021/08/05 09:00:13;;;;;;;3.47;3.27;;;21.30;99.90;;;;;;5005020;28;20433;-69
2021/08/05 09:02:39;;;;;;;3.87;3.47;;;22.30;99.90;;;;;;5010292;28;20987;-71
2021/08/05 09:05:06;;;;;;;4.23;2.70;;;22.90;99.90;;;;;;5010256;28;20652;-69
2021/08/05 09:07:33;;;;;;;3.37;3.00;;;23.60;99.90;;;;;;5009587;28;20209;-71
2021/08/05 09:09:58;;;;;;;2.87;2.67;;;24.30;99.90;;;;;;5005995;28;20425;-72
2021/08/05 09:12:24;;;;;;;2.97;2.77;;;24.10;99.90;;;;;;5009694;28;21008;-70
2021/08/05 09:14:53;;;;;;;2.80;2.60;;;23.80;99.90;;;;;;4992361;28;20175;-71
2021/08/05 09:17:30;;;;;;;3.00;2.70;;;24.30;99.90;;;;;;5010106;28;20226;-71
2021/08/05 09:19:59;;;;;;;2.30;2.07;;;24.40;99.90;;;;;;5005934;28;20421;-73
2021/08/05 09:22:39;;;;;;;2.43;1.97;;;25.10;99.90;;;;;;5009725;28;20453;-71
2021/08/05 09:25:29;;;;;;;2.80;2.60;;;25.70;99.90;;;;;;5009470;28;21363;-70
2021/08/05 09:28:16;;;;;;;2.50;2.30;;;25.60;99.90;;;;;;5009839;28;20417;-70
2021/08/05 09:30:43;;;;;;;6.70;2.20;;;25.40;99.90;;;;;;4988162;28;20453;-70
2021/08/05 09:33:11;;;;;;;3.80;3.40;;;26.10;99.50;;;;;;5011554;28;20449;-70
2021/08/05 09:35:38;;;;;;;2.40;2.20;;;26.40;99.40;;;;;;5012693;28;20421;-70
2021/08/05 09:38:16;;;;;;;2.07;1.97;;;26.70;98.00;;;;;;5012810;28;20414;-70
2021/08/05 09:40:42;;;;;;;2.10;2.00;;;27.40;98.00;;;;;;5008663;28;20503;-71
2021/08/05 09:43:08;;;;;;;3.17;2.53;;;28.30;95.90;;;;;;4995074;28;20504;-72
2021/08/05 09:45:38;;;;;;;2.00;1.90;;;27.80;95.90;;;;;;5012737;28;20653;-70
2021/08/05 09:48:04;;;;;;;2.77;2.57;;;27.00;95.60;;;;;;5012460;28;20241;-72
2021/08/05 09:50:30;;;;;;;2.10;2.00;;;25.80;97.60;;;;;;5008564;28;20441;-69
2021/08/05 09:53:09;;;;;;;2.47;2.27;;;25.00;99.30;;;;;;5012493;28;20269;-70
2021/08/05 09:55:35;;;;;;;1.80;1.70;;;25.00;99.90;;;;;;5012491;28;20594;-70
2021/08/05 09:58:02;;;;;;;2.70;2.20;;;25.30;99.60;;;;;;5012391;28;20436;-71
2021/08/05 10:00:43;;;;;;;2.30;2.10;;;26.20;98.30;;;;;;5008213;28;20528;-70
2021/08/05 10:03:09;;;;;;;2.33;2.20;;;27.10;96.70;;;;;;5011504;28;20441;-70
2021/08/05 10:05:36;;;;;;;2.37;2.27;;;27.40;95.60;;;;;;5012400;28;20422;-69
2021/08/05 10:08:02;;;;;;;2.63;2.23;;;27.60;94.80;;;;;;5011776;28;20449;-70
2021/08/05 10:12:59;;;;;;;2.37;1.90;;;25.80;94.60;;;;;;4967612;28;20471;-72
2021/08/05 10:15:27;;;;;;;2.60;1.60;;;25.20;96.50;;;;;;4973029;28;20445;-72
2021/08/05 10:17:57;;;;;;;2.07;1.87;;;25.20;96.90;;;;;;4972020;28;20423;-72
2021/08/05 10:20:24;;;;;;;3.57;2.10;;;24.80;97.80;;;;;;4951661;28;20473;-72
2021/08/05 10:22:51;;;;;;;1.97;1.83;;;25.10;98.20;;;;;;4972639;28;20500;-72
2021/08/05 10:25:25;;;;;;;6.73;4.43;;;25.30;98.30;;;;;;4972942;28;20494;-72
2021/08/05 10:27:52;;;;;;;3.73;2.63;;;25.90;97.20;;;;;;4973018;28;20961;-71
2021/08/05 10:30:18;;;;;;;2.70;2.43;;;26.30;97.00;;;;;;4969270;28;20427;-72
2021/08/05 10:32:45;;;;;;;2.97;2.63;;;27.30;95.90;;;;;;4972935;28;20444;-71
2021/08/05 10:35:13;;;;;;;3.23;2.93;;;28.40;94.70;;;;;;4973002;28;20458;-72
2021/08/05 10:37:39;;;;;;;3.17;2.23;;;28.70;93.50;;;;;;4972894;28;20523;-72
2021/08/05 10:40:07;;;;;;;4.40;3.63;;;28.50;92.90;;;;;;4968960;28;20420;-74
2021/08/05 10:42:33;;;;;;;3.43;3.13;;;27.90;93.20;;;;;;4972682;28;20471;-73
2021/08/05 10:44:59;;;;;;;2.20;2.10;;;27.40;94.30;;;;;;4972750;28;20444;-73
2021/08/05 10:47:28;;;;;;;1.80;1.70;;;26.40;94.80;;;;;;4972951;28;20470;-71
2021/08/05 10:50:01;;;;;;;1.63;1.53;;;25.90;94.00;;;;;;4968947;28;20423;-71
2021/08/05 10:52:35;;;;;;;1.83;1.73;;;25.50;95.30;;;;;;4972625;28;20463;-72
2021/08/05 10:55:20;;;;;;;1.50;1.40;;;25.30;95.90;;;;;;4972904;28;20901;-72
2021/08/05 10:58:06;;;;;;;0.93;0.90;;;25.90;96.00;;;;;;4972352;28;20434;-71
2021/08/05 11:00:51;;;;;;;1.93;1.83;;;28.30;93.40;;;;;;4968746;28;20799;-72
2021/08/05 11:03:32;;;;;;;1.93;1.70;;;31.90;88.00;;;;;;4972714;28;20439;-71
2021/08/05 11:05:59;;;;;;;1.57;1.47;;;31.90;81.90;;;;;;4973027;28;20416;-73
2021/08/05 11:08:26;;;;;;;2.00;1.90;;;31.30;79.60;;;;;;4971502;28;20423;-72
2021/08/05 11:11:24;;;;;;;2.63;2.20;;;32.80;76.60;;;;;;4969892;28;20522;-73
2021/08/05 11:13:58;;;;;;;1.80;1.70;;;32.30;75.60;;;;;;4971029;28;20491;-69
2021/08/05 11:16:53;;;;;;;2.43;1.97;;;30.40;74.20;;;;;;4972510;28;20481;-69
2021/08/05 11:19:19;;;;;;;1.80;1.70;;;29.90;77.30;;;;;;4970203;28;20466;-70
2021/08/05 11:21:45;;;;;;;3.50;3.23;;;28.80;80.60;;;;;;4975361;28;20459;-70
2021/08/05 11:24:10;;;;;;;1.80;1.70;;;28.20;84.30;;;;;;4975930;28;20468;-70
2021/08/05 11:27:09;;;;;;;1.97;1.83;;;27.50;85.50;;;;;;4976255;28;20210;-69
2021/08/05 11:29:34;;;;;;;2.50;2.30;;;27.20;87.50;;;;;;4972590;28;20191;-69
2021/08/05 11:32:26;;;;;;;2.60;2.40;;;27.20;88.80;;;;;;4975171;28;20826;-70
2021/08/05 11:34:59;;;;;;;1.73;1.63;;;27.80;87.60;;;;;;4974721;28;20281;-72
2021/08/05 11:37:26;;;;;;;2.90;2.40;;;28.30;86.20;;;;;;4968871;28;20448;-71
2021/08/05 11:39:53;;;;;;;3.33;1.90;;;28.90;86.50;;;;;;4968838;28;20427;-70
2021/08/05 11:42:20;;;;;;;2.30;1.90;;;29.40;83.80;;;;;;4972164;28;20463;-70
2021/08/05 11:44:56;;;;;;;2.53;2.30;;;28.60;84.10;;;;;;4954948;28;21003;-70
2021/08/05 11:47:33;;;;;;;2.13;1.93;;;28.30;84.70;;;;;;4972593;28;20785;-70
2021/08/05 11:50:10;;;;;;;2.13;2.03;;;28.30;85.50;;;;;;4962911;28;20958;-70
2021/08/05 11:53:02;;;;;;;2.40;1.70;;;28.10;84.00;;;;;;4956741;28;20446;-69
2021/08/05 11:55:30;;;;;;;2.50;2.30;;;27.10;88.10;;;;;;4955433;28;20427;-69
2021/08/05 11:58:02;;;;;;;2.63;2.33;;;26.80;88.40;;;;;;4975598;28;20423;-69
2021/08/05 12:00:28;;;;;;;2.00;1.80;;;26.70;87.80;;;;;;4954063;28;20476;-69
2021/08/05 12:03:09;;;;;;;2.10;2.00;;;27.70;86.40;;;;;;4975496;28;20753;-69
2021/08/05 12:05:43;;;;;;;3.90;1.90;;;28.70;84.90;;;;;;4975738;28;20842;-69
2021/08/05 12:08:09;;;;;;;2.13;2.03;;;28.40;85.80;;;;;;4975215;28;20411;-70
2021/08/05 12:10:37;;;;;;;2.17;2.07;;;28.70;86.60;;;;;;4969674;28;20419;-70
2021/08/05 12:13:11;;;;;;;2.43;2.23;;;29.90;81.60;;;;;;4973420;28;20486;-71
2021/08/05 12:15:42;;;;;;;2.10;2.00;;;30.40;79.20;;;;;;4950935;28;20438;-71
2021/08/05 12:18:15;;;;;;;2.07;1.97;;;31.10;77.60;;;;;;4971911;28;20423;-70
2021/08/05 12:20:45;;;;;;;2.37;2.20;;;32.30;74.00;;;;;;4968346;28;20940;-71
2021/08/05 12:23:21;;;;;;;2.67;2.30;;;33.10;73.30;;;;;;4972153;28;20459;-71
2021/08/05 12:28:31;;;;;;;2.30;2.10;;;34.10;66.00;;;;;;4970522;28;20459;-71
2021/08/05 12:31:03;;;;;;;2.03;1.93;;;33.00;67.80;;;;;;4968984;28;20979;-70
2021/08/05 12:33:29;;;;;;;2.40;2.30;;;31.30;69.40;;;;;;4971484;28;20523;-64
2021/08/05 12:36:13;;;;;;;2.07;1.90;;;29.30;74.10;;;;;;4954337;28;20607;-64
2021/08/05 12:38:52;;;;;;;1.97;1.80;;;28.40;77.30;;;;;;4968085;28;20440;-65
2021/08/05 12:41:34;;;;;;;1.90;1.80;;;27.90;78.60;;;;;;4951951;28;20868;-64
2021/08/05 12:44:17;;;;;;;1.80;1.70;;;27.00;81.40;;;;;;4971489;28;20426;-64
2021/08/05 12:46:45;;;;;;;2.40;2.20;;;26.10;85.60;;;;;;4971628;28;20439;-65
2021/08/05 12:49:12;;;;;;;1.90;1.80;;;25.60;93.10;;;;;;4968143;28;20423;-64
2021/08/05 12:51:37;;;;;;;2.57;2.37;;;24.90;95.40;;;;;;4970410;28;21037;-65
2021/08/05 12:54:19;;;;;;;2.37;2.17;;;24.10;99.40;;;;;;4971296;28;20511;-64
2021/08/05 12:56:50;;;;;;;2.70;1.90;;;22.90;99.90;;;;;;4970075;28;20180;-65